sensor_id;sensor_type;location;lat;lon;timestamp;temperature;humidity
33655;DHT22;19997;51.274;22.506;2023-03-29T00:02:04;0.60;78.40
33655;DHT22;19997;51.274;22.506;2023-03-29T00:04:32;0.60;78.30
33655;DHT22;19997;51.274;22.506;2023-03-29T00:06:59;0.60;78.20
33655;DHT22;19997;51.274;22.506;2023-03-29T00:09:29;0.60;78.10
33655;DHT22;19997;51.274;22.506;2023-03-29T00:11:57;0.70;77.80
33655;DHT22;19997;51.274;22.506;2023-03-29T00:14:24;0.70;77.50
33655;DHT22;19997;51.274;22.506;2023-03-29T00:16:53;0.60;77.40
33655;DHT22;19997;51.274;22.506;2023-03-29T00:19:22;0.60;77.30
33655;DHT22;19997;51.274;22.506;2023-03-29T00:21:49;0.60;77.30
33655;DHT22;19997;51.274;22.506;2023-03-29T00:24:16;0.60;77.50
33655;DHT22;19997;51.274;22.506;2023-03-29T00:26:43;0.60;77.00
33655;DHT22;19997;51.274;22.506;2023-03-29T00:29:10;0.60;77.00
33655;DHT22;19997;51.274;22.506;2023-03-29T00:31:37;0.60;76.90
33655;DHT22;19997;51.274;22.506;2023-03-29T00:34:04;0.70;76.80
33655;DHT22;19997;51.274;22.506;2023-03-29T00:36:33;0.70;76.90
33655;DHT22;19997;51.274;22.506;2023-03-29T00:39:00;0.70;76.50
33655;DHT22;19997;51.274;22.506;2023-03-29T00:41:27;0.70;76.10
33655;DHT22;19997;51.274;22.506;2023-03-29T00:43:57;0.70;75.90
33655;DHT22;19997;51.274;22.506;2023-03-29T00:46:26;0.60;75.20
33655;DHT22;19997;51.274;22.506;2023-03-29T00:48:56;0.50;75.20
33655;DHT22;19997;51.274;22.506;2023-03-29T00:51:26;0.50;75.30
33655;DHT22;19997;51.274;22.506;2023-03-29T00:53:57;0.40;75.20
33655;DHT22;19997;51.274;22.506;2023-03-29T00:56:28;0.50;75.10
33655;DHT22;19997;51.274;22.506;2023-03-29T00:59:00;0.50;74.80
33655;DHT22;19997;51.274;22.506;2023-03-29T01:01:32;0.50;74.60
33655;DHT22;19997;51.274;22.506;2023-03-29T01:04:05;0.50;74.50
33655;DHT22;19997;51.274;22.506;2023-03-29T01:06:35;0.60;74.10
33655;DHT22;19997;51.274;22.506;2023-03-29T01:09:06;0.60;73.50
33655;DHT22;19997;51.274;22.506;2023-03-29T01:11:38;0.60;73.00
33655;DHT22;19997;51.274;22.506;2023-03-29T01:14:11;0.50;72.90
33655;DHT22;19997;51.274;22.506;2023-03-29T01:16:40;0.50;72.50
33655;DHT22;19997;51.274;22.506;2023-03-29T01:19:09;0.50;72.60
33655;DHT22;19997;51.274;22.506;2023-03-29T01:21:43;0.50;72.60
33655;DHT22;19997;51.274;22.506;2023-03-29T01:24:35;0.40;72.30
33655;DHT22;19997;51.274;22.506;2023-03-29T01:27:13;0.40;72.30
33655;DHT22;19997;51.274;22.506;2023-03-29T01:29:47;0.40;72.40
33655;DHT22;19997;51.274;22.506;2023-03-29T01:32:22;0.30;72.20
33655;DHT22;19997;51.274;22.506;2023-03-29T01:34:55;0.30;72.10
33655;DHT22;19997;51.274;22.506;2023-03-29T01:37:26;0.30;72.10
33655;DHT22;19997;51.274;22.506;2023-03-29T01:39:54;0.30;71.80
33655;DHT22;19997;51.274;22.506;2023-03-29T01:42:33;0.30;71.90
33655;DHT22;19997;51.274;22.506;2023-03-29T01:45:12;0.30;71.70
33655;DHT22;19997;51.274;22.506;2023-03-29T01:47:45;0.30;71.70
33655;DHT22;19997;51.274;22.506;2023-03-29T01:50:16;0.20;71.60
33655;DHT22;19997;51.274;22.506;2023-03-29T01:52:49;0.20;71.80
33655;DHT22;19997;51.274;22.506;2023-03-29T01:55:20;0.10;71.90
33655;DHT22;19997;51.274;22.506;2023-03-29T01:57:50;0.10;72.20
33655;DHT22;19997;51.274;22.506;2023-03-29T02:00:21;0.00;72.40
33655;DHT22;19997;51.274;22.506;2023-03-29T02:02:51;0.00;72.80
33655;DHT22;19997;51.274;22.506;2023-03-29T02:05:21;-0.10;72.90
33655;DHT22;19997;51.274;22.506;2023-03-29T02:07:49;-0.20;73.10
33655;DHT22;19997;51.274;22.506;2023-03-29T02:10:18;-0.20;73.30
33655;DHT22;19997;51.274;22.506;2023-03-29T02:12:46;-0.30;73.40
33655;DHT22;19997;51.274;22.506;2023-03-29T02:15:15;-0.30;73.70
33655;DHT22;19997;51.274;22.506;2023-03-29T02:17:45;-0.40;73.60
33655;DHT22;19997;51.274;22.506;2023-03-29T02:20:14;-0.40;73.50
33655;DHT22;19997;51.274;22.506;2023-03-29T02:22:49;-0.40;73.70
33655;DHT22;19997;51.274;22.506;2023-03-29T02:25:18;-0.50;73.70
33655;DHT22;19997;51.274;22.506;2023-03-29T02:27:47;-0.50;73.80
33655;DHT22;19997;51.274;22.506;2023-03-29T02:30:16;-0.60;73.90
33655;DHT22;19997;51.274;22.506;2023-03-29T02:32:50;-0.60;74.20
33655;DHT22;19997;51.274;22.506;2023-03-29T02:35:24;-0.60;74.00
33655;DHT22;19997;51.274;22.506;2023-03-29T02:37:55;-0.60;74.30
33655;DHT22;19997;51.274;22.506;2023-03-29T02:40:24;-0.70;74.30
33655;DHT22;19997;51.274;22.506;2023-03-29T02:42:52;-0.60;74.50
33655;DHT22;19997;51.274;22.506;2023-03-29T02:45:22;-0.70;74.60
33655;DHT22;19997;51.274;22.506;2023-03-29T02:47:54;-0.70;74.70
33655;DHT22;19997;51.274;22.506;2023-03-29T02:50:23;-0.70;74.90
33655;DHT22;19997;51.274;22.506;2023-03-29T02:52:57;-0.70;75.00
33655;DHT22;19997;51.274;22.506;2023-03-29T02:55:26;-0.80;75.00
33655;DHT22;19997;51.274;22.506;2023-03-29T02:57:56;-0.80;75.20
33655;DHT22;19997;51.274;22.506;2023-03-29T03:00:23;-0.80;75.20
33655;DHT22;19997;51.274;22.506;2023-03-29T03:02:52;-0.80;75.40
33655;DHT22;19997;51.274;22.506;2023-03-29T03:05:19;-0.80;75.50
33655;DHT22;19997;51.274;22.506;2023-03-29T03:07:48;-0.80;75.60
33655;DHT22;19997;51.274;22.506;2023-03-29T03:10:16;-0.80;75.70
33655;DHT22;19997;51.274;22.506;2023-03-29T03:12:43;-0.80;75.80
33655;DHT22;19997;51.274;22.506;2023-03-29T03:15:11;-0.90;75.90
33655;DHT22;19997;51.274;22.506;2023-03-29T03:17:39;-0.90;76.10
33655;DHT22;19997;51.274;22.506;2023-03-29T03:20:10;-0.90;76.10
33655;DHT22;19997;51.274;22.506;2023-03-29T03:22:41;-0.90;76.20
33655;DHT22;19997;51.274;22.506;2023-03-29T03:25:08;-0.90;76.30
33655;DHT22;19997;51.274;22.506;2023-03-29T03:27:37;-0.90;76.30
33655;DHT22;19997;51.274;22.506;2023-03-29T03:30:05;-0.90;76.40
33655;DHT22;19997;51.274;22.506;2023-03-29T03:32:48;-0.90;76.60
33655;DHT22;19997;51.274;22.506;2023-03-29T03:35:39;-0.90;76.60
33655;DHT22;19997;51.274;22.506;2023-03-29T03:38:07;-1.00;76.70
33655;DHT22;19997;51.274;22.506;2023-03-29T03:40:35;-1.00;76.80
33655;DHT22;19997;51.274;22.506;2023-03-29T03:43:03;-1.00;76.80
33655;DHT22;19997;51.274;22.506;2023-03-29T03:45:30;-1.10;76.80
33655;DHT22;19997;51.274;22.506;2023-03-29T03:48:03;-1.00;77.00
33655;DHT22;19997;51.274;22.506;2023-03-29T03:50:57;-1.00;77.00
33655;DHT22;19997;51.274;22.506;2023-03-29T03:53:29;-1.10;76.90
33655;DHT22;19997;51.274;22.506;2023-03-29T03:56:12;-1.10;76.90
33655;DHT22;19997;51.274;22.506;2023-03-29T03:58:58;-1.10;76.90
33655;DHT22;19997;51.274;22.506;2023-03-29T04:01:27;-1.10;77.00
33655;DHT22;19997;51.274;22.506;2023-03-29T04:04:03;-1.10;77.10
33655;DHT22;19997;51.274;22.506;2023-03-29T04:06:36;-1.10;77.10
33655;DHT22;19997;51.274;22.506;2023-03-29T04:09:21;-1.10;77.30
33655;DHT22;19997;51.274;22.506;2023-03-29T04:12:02;-1.10;77.30
33655;DHT22;19997;51.274;22.506;2023-03-29T04:14:29;-1.10;77.40
33655;DHT22;19997;51.274;22.506;2023-03-29T04:17:05;-1.10;77.50
33655;DHT22;19997;51.274;22.506;2023-03-29T04:20:02;-1.20;77.50
33655;DHT22;19997;51.274;22.506;2023-03-29T04:22:36;-1.20;77.60
33655;DHT22;19997;51.274;22.506;2023-03-29T04:25:04;-1.20;77.60
33655;DHT22;19997;51.274;22.506;2023-03-29T04:27:48;-1.20;77.70
33655;DHT22;19997;51.274;22.506;2023-03-29T04:30:36;-1.20;77.80
33655;DHT22;19997;51.274;22.506;2023-03-29T04:33:16;-1.10;77.90
33655;DHT22;19997;51.274;22.506;2023-03-29T04:35:49;-1.10;77.90
33655;DHT22;19997;51.274;22.506;2023-03-29T04:38:19;-1.10;78.00
33655;DHT22;19997;51.274;22.506;2023-03-29T04:40:48;-1.10;78.20
33655;DHT22;19997;51.274;22.506;2023-03-29T04:43:35;-1.10;78.20
33655;DHT22;19997;51.274;22.506;2023-03-29T04:46:10;-1.10;78.40
33655;DHT22;19997;51.274;22.506;2023-03-29T04:49:00;-1.10;78.40
33655;DHT22;19997;51.274;22.506;2023-03-29T04:51:33;-1.10;78.60
33655;DHT22;19997;51.274;22.506;2023-03-29T04:54:02;-1.10;78.70
33655;DHT22;19997;51.274;22.506;2023-03-29T04:56:35;-1.00;78.90
33655;DHT22;19997;51.274;22.506;2023-03-29T04:59:21;-1.00;78.90
33655;DHT22;19997;51.274;22.506;2023-03-29T05:01:49;-1.00;79.00
33655;DHT22;19997;51.274;22.506;2023-03-29T05:04:16;-1.00;79.10
33655;DHT22;19997;51.274;22.506;2023-03-29T05:06:58;-0.90;79.00
33655;DHT22;19997;51.274;22.506;2023-03-29T05:09:28;-0.90;79.00
33655;DHT22;19997;51.274;22.506;2023-03-29T05:11:55;-0.90;79.10
33655;DHT22;19997;51.274;22.506;2023-03-29T05:14:23;-0.90;79.10
33655;DHT22;19997;51.274;22.506;2023-03-29T05:16:50;-0.80;79.20
33655;DHT22;19997;51.274;22.506;2023-03-29T05:19:17;-0.80;79.30
33655;DHT22;19997;51.274;22.506;2023-03-29T05:21:47;-0.80;79.40
33655;DHT22;19997;51.274;22.506;2023-03-29T05:24:19;-0.70;79.40
33655;DHT22;19997;51.274;22.506;2023-03-29T05:26:59;-0.70;79.50
33655;DHT22;19997;51.274;22.506;2023-03-29T05:29:30;-0.60;79.50
33655;DHT22;19997;51.274;22.506;2023-03-29T05:32:18;-0.60;79.50
33655;DHT22;19997;51.274;22.506;2023-03-29T05:34:45;-0.50;79.50
33655;DHT22;19997;51.274;22.506;2023-03-29T05:37:12;-0.40;79.50
33655;DHT22;19997;51.274;22.506;2023-03-29T05:39:51;-0.40;79.50
33655;DHT22;19997;51.274;22.506;2023-03-29T05:42:23;-0.30;79.50
33655;DHT22;19997;51.274;22.506;2023-03-29T05:45:06;-0.30;79.40
33655;DHT22;19997;51.274;22.506;2023-03-29T05:47:33;-0.20;79.30
33655;DHT22;19997;51.274;22.506;2023-03-29T05:50:01;-0.20;79.40
33655;DHT22;19997;51.274;22.506;2023-03-29T05:52:28;-0.10;79.50
33655;DHT22;19997;51.274;22.506;2023-03-29T05:54:56;-0.10;79.40
33655;DHT22;19997;51.274;22.506;2023-03-29T05:57:24;0.00;79.50
33655;DHT22;19997;51.274;22.506;2023-03-29T05:59:52;0.00;79.40
33655;DHT22;19997;51.274;22.506;2023-03-29T06:02:19;0.10;79.40
33655;DHT22;19997;51.274;22.506;2023-03-29T06:04:51;0.10;79.40
33655;DHT22;19997;51.274;22.506;2023-03-29T06:07:21;0.20;79.50
33655;DHT22;19997;51.274;22.506;2023-03-29T06:10:08;0.20;79.50
33655;DHT22;19997;51.274;22.506;2023-03-29T06:12:39;0.30;79.40
33655;DHT22;19997;51.274;22.506;2023-03-29T06:15:07;0.30;79.50
33655;DHT22;19997;51.274;22.506;2023-03-29T06:17:41;0.40;79.30
33655;DHT22;19997;51.274;22.506;2023-03-29T06:20:10;0.50;79.30
33655;DHT22;19997;51.274;22.506;2023-03-29T06:22:41;0.60;79.30
33655;DHT22;19997;51.274;22.506;2023-03-29T06:25:10;0.60;79.30
33655;DHT22;19997;51.274;22.506;2023-03-29T06:27:39;0.70;79.50
33655;DHT22;19997;51.274;22.506;2023-03-29T06:30:08;0.70;79.50
33655;DHT22;19997;51.274;22.506;2023-03-29T06:32:37;0.80;79.40
33655;DHT22;19997;51.274;22.506;2023-03-29T06:35:08;0.90;78.70
33655;DHT22;19997;51.274;22.506;2023-03-29T06:37:38;0.90;78.30
33655;DHT22;19997;51.274;22.506;2023-03-29T06:40:27;1.00;78.40
33655;DHT22;19997;51.274;22.506;2023-03-29T06:42:57;1.00;78.40
33655;DHT22;19997;51.274;22.506;2023-03-29T06:45:46;1.00;78.10
33655;DHT22;19997;51.274;22.506;2023-03-29T06:48:23;1.10;78.20
33655;DHT22;19997;51.274;22.506;2023-03-29T06:50:51;1.10;78.00
33655;DHT22;19997;51.274;22.506;2023-03-29T06:53:22;1.20;78.00
33655;DHT22;19997;51.274;22.506;2023-03-29T06:55:57;1.20;77.90
33655;DHT22;19997;51.274;22.506;2023-03-29T06:58:47;1.20;78.00
33655;DHT22;19997;51.274;22.506;2023-03-29T07:01:43;1.30;77.90
33655;DHT22;19997;51.274;22.506;2023-03-29T07:04:21;1.30;77.80
33655;DHT22;19997;51.274;22.506;2023-03-29T07:07:09;1.40;77.80
33655;DHT22;19997;51.274;22.506;2023-03-29T07:09:46;1.50;77.80
33655;DHT22;19997;51.274;22.506;2023-03-29T07:12:37;1.50;77.20
33655;DHT22;19997;51.274;22.506;2023-03-29T07:15:07;1.60;77.10
33655;DHT22;19997;51.274;22.506;2023-03-29T07:17:57;1.70;77.20
33655;DHT22;19997;51.274;22.506;2023-03-29T07:20:27;1.80;77.00
33655;DHT22;19997;51.274;22.506;2023-03-29T07:23:04;1.90;76.90
33655;DHT22;19997;51.274;22.506;2023-03-29T07:25:32;2.00;76.70
33655;DHT22;19997;51.274;22.506;2023-03-29T07:28:00;2.00;76.70
33655;DHT22;19997;51.274;22.506;2023-03-29T07:30:30;2.20;76.50
33655;DHT22;19997;51.274;22.506;2023-03-29T07:33:09;2.20;75.50
33655;DHT22;19997;51.274;22.506;2023-03-29T07:36:03;2.30;75.00
33655;DHT22;19997;51.274;22.506;2023-03-29T07:38:32;2.30;74.80
33655;DHT22;19997;51.274;22.506;2023-03-29T07:41:08;2.30;74.90
33655;DHT22;19997;51.274;22.506;2023-03-29T07:43:45;2.30;74.80
33655;DHT22;19997;51.274;22.506;2023-03-29T07:46:16;2.40;74.70
33655;DHT22;19997;51.274;22.506;2023-03-29T07:48:44;2.40;74.70
33655;DHT22;19997;51.274;22.506;2023-03-29T07:51:13;2.50;73.80
33655;DHT22;19997;51.274;22.506;2023-03-29T07:53:46;2.50;73.40
33655;DHT22;19997;51.274;22.506;2023-03-29T07:56:32;2.60;73.00
33655;DHT22;19997;51.274;22.506;2023-03-29T07:59:25;2.60;72.20
33655;DHT22;19997;51.274;22.506;2023-03-29T08:02:04;2.70;71.90
33655;DHT22;19997;51.274;22.506;2023-03-29T08:04:44;2.80;71.80
33655;DHT22;19997;51.274;22.506;2023-03-29T08:07:15;2.80;71.40
33655;DHT22;19997;51.274;22.506;2023-03-29T08:09:55;2.90;71.30
33655;DHT22;19997;51.274;22.506;2023-03-29T08:12:35;3.00;71.00
33655;DHT22;19997;51.274;22.506;2023-03-29T08:15:03;3.00;70.90
33655;DHT22;19997;51.274;22.506;2023-03-29T08:17:34;3.00;70.50
33655;DHT22;19997;51.274;22.506;2023-03-29T08:20:04;3.10;70.90
33655;DHT22;19997;51.274;22.506;2023-03-29T08:22:31;3.20;69.90
33655;DHT22;19997;51.274;22.506;2023-03-29T08:25:05;3.30;69.60
33655;DHT22;19997;51.274;22.506;2023-03-29T08:27:38;3.30;69.00
33655;DHT22;19997;51.274;22.506;2023-03-29T08:30:08;3.40;68.20
33655;DHT22;19997;51.274;22.506;2023-03-29T08:32:38;3.50;67.60
33655;DHT22;19997;51.274;22.506;2023-03-29T08:35:08;3.50;67.50
33655;DHT22;19997;51.274;22.506;2023-03-29T08:37:40;3.60;67.80
33655;DHT22;19997;51.274;22.506;2023-03-29T08:40:10;3.70;67.60
33655;DHT22;19997;51.274;22.506;2023-03-29T08:43:27;3.70;66.70
33655;DHT22;19997;51.274;22.506;2023-03-29T08:46:29;3.70;65.70
33655;DHT22;19997;51.274;22.506;2023-03-29T08:49:08;3.80;66.10
33655;DHT22;19997;51.274;22.506;2023-03-29T08:51:39;3.90;66.10
33655;DHT22;19997;51.274;22.506;2023-03-29T08:54:09;3.90;65.90
33655;DHT22;19997;51.274;22.506;2023-03-29T08:57:00;4.00;65.30
33655;DHT22;19997;51.274;22.506;2023-03-29T08:59:33;4.00;64.40
33655;DHT22;19997;51.274;22.506;2023-03-29T09:02:13;4.10;64.50
33655;DHT22;19997;51.274;22.506;2023-03-29T09:04:44;4.10;64.50
33655;DHT22;19997;51.274;22.506;2023-03-29T09:07:39;4.20;64.30
33655;DHT22;19997;51.274;22.506;2023-03-29T09:10:11;4.30;63.00
33655;DHT22;19997;51.274;22.506;2023-03-29T09:12:50;4.30;63.10
33655;DHT22;19997;51.274;22.506;2023-03-29T09:15:28;4.30;62.50
33655;DHT22;19997;51.274;22.506;2023-03-29T09:18:25;4.40;62.70
33655;DHT22;19997;51.274;22.506;2023-03-29T09:21:00;4.50;62.60
33655;DHT22;19997;51.274;22.506;2023-03-29T09:23:47;4.70;61.70
33655;DHT22;19997;51.274;22.506;2023-03-29T09:26:32;4.80;61.10
33655;DHT22;19997;51.274;22.506;2023-03-29T09:32:18;4.90;59.00
33655;DHT22;19997;51.274;22.506;2023-03-29T09:34:57;4.90;57.20
33655;DHT22;19997;51.274;22.506;2023-03-29T09:37:32;5.00;57.10
33655;DHT22;19997;51.274;22.506;2023-03-29T09:40:05;5.10;57.20
33655;DHT22;19997;51.274;22.506;2023-03-29T09:42:56;5.10;56.60
33655;DHT22;19997;51.274;22.506;2023-03-29T09:45:24;5.20;55.40
33655;DHT22;19997;51.274;22.506;2023-03-29T09:47:55;5.20;54.80
33655;DHT22;19997;51.274;22.506;2023-03-29T09:50:29;5.20;55.10
33655;DHT22;19997;51.274;22.506;2023-03-29T09:53:03;5.20;55.30
33655;DHT22;19997;51.274;22.506;2023-03-29T09:55:35;5.20;55.40
33655;DHT22;19997;51.274;22.506;2023-03-29T09:58:12;5.30;55.00
33655;DHT22;19997;51.274;22.506;2023-03-29T10:00:44;5.30;54.70
33655;DHT22;19997;51.274;22.506;2023-03-29T10:03:17;5.40;54.60
33655;DHT22;19997;51.274;22.506;2023-03-29T10:05:51;5.40;53.20
33655;DHT22;19997;51.274;22.506;2023-03-29T10:08:24;5.40;53.60
33655;DHT22;19997;51.274;22.506;2023-03-29T10:10:53;5.40;53.30
33655;DHT22;19997;51.274;22.506;2023-03-29T10:13:28;5.40;53.10
33655;DHT22;19997;51.274;22.506;2023-03-29T10:16:03;5.40;52.50
33655;DHT22;19997;51.274;22.506;2023-03-29T10:18:31;5.50;52.60
33655;DHT22;19997;51.274;22.506;2023-03-29T10:20:59;5.50;52.90
33655;DHT22;19997;51.274;22.506;2023-03-29T10:23:31;5.50;52.80
33655;DHT22;19997;51.274;22.506;2023-03-29T10:26:00;5.50;53.20
33655;DHT22;19997;51.274;22.506;2023-03-29T10:28:29;5.50;53.40
33655;DHT22;19997;51.274;22.506;2023-03-29T10:30:58;5.60;53.50
33655;DHT22;19997;51.274;22.506;2023-03-29T10:33:30;5.70;52.40
33655;DHT22;19997;51.274;22.506;2023-03-29T10:35:59;5.80;53.40
33655;DHT22;19997;51.274;22.506;2023-03-29T10:38:30;5.80;53.70
33655;DHT22;19997;51.274;22.506;2023-03-29T10:41:03;5.90;54.20
33655;DHT22;19997;51.274;22.506;2023-03-29T10:43:36;5.90;54.00
33655;DHT22;19997;51.274;22.506;2023-03-29T10:46:08;5.90;53.90
33655;DHT22;19997;51.274;22.506;2023-03-29T10:48:38;5.90;53.80
33655;DHT22;19997;51.274;22.506;2023-03-29T10:51:05;5.90;54.30
33655;DHT22;19997;51.274;22.506;2023-03-29T10:53:35;5.90;54.40
33655;DHT22;19997;51.274;22.506;2023-03-29T10:56:12;6.00;53.50
33655;DHT22;19997;51.274;22.506;2023-03-29T10:58:52;6.00;53.50
33655;DHT22;19997;51.274;22.506;2023-03-29T11:01:28;6.00;54.40
33655;DHT22;19997;51.274;22.506;2023-03-29T11:04:06;6.10;54.90
33655;DHT22;19997;51.274;22.506;2023-03-29T11:06:37;6.20;54.40
33655;DHT22;19997;51.274;22.506;2023-03-29T11:09:15;6.30;53.20
33655;DHT22;19997;51.274;22.506;2023-03-29T11:11:57;6.30;52.00
33655;DHT22;19997;51.274;22.506;2023-03-29T11:14:33;6.20;52.00
33655;DHT22;19997;51.274;22.506;2023-03-29T11:17:16;6.20;52.00
33655;DHT22;19997;51.274;22.506;2023-03-29T11:19:55;6.30;51.80
33655;DHT22;19997;51.274;22.506;2023-03-29T11:22:36;6.30;51.90
33655;DHT22;19997;51.274;22.506;2023-03-29T11:25:27;6.30;51.00
33655;DHT22;19997;51.274;22.506;2023-03-29T11:28:03;6.40;50.80
33655;DHT22;19997;51.274;22.506;2023-03-29T11:30:37;6.40;50.10
33655;DHT22;19997;51.274;22.506;2023-03-29T11:33:17;6.40;50.60
33655;DHT22;19997;51.274;22.506;2023-03-29T11:35:51;6.50;49.60
33655;DHT22;19997;51.274;22.506;2023-03-29T11:38:26;6.50;49.60
33655;DHT22;19997;51.274;22.506;2023-03-29T11:41:00;6.60;48.30
33655;DHT22;19997;51.274;22.506;2023-03-29T11:43:33;6.60;47.90
33655;DHT22;19997;51.274;22.506;2023-03-29T11:46:08;6.50;47.40
33655;DHT22;19997;51.274;22.506;2023-03-29T11:48:42;6.60;48.10
33655;DHT22;19997;51.274;22.506;2023-03-29T11:51:15;6.60;48.20
33655;DHT22;19997;51.274;22.506;2023-03-29T11:53:50;6.60;47.70
33655;DHT22;19997;51.274;22.506;2023-03-29T11:56:26;6.70;47.50
33655;DHT22;19997;51.274;22.506;2023-03-29T11:58:58;6.70;46.50
33655;DHT22;19997;51.274;22.506;2023-03-29T12:01:32;6.70;45.90
33655;DHT22;19997;51.274;22.506;2023-03-29T12:04:03;6.70;45.80
33655;DHT22;19997;51.274;22.506;2023-03-29T12:06:37;6.70;46.10
33655;DHT22;19997;51.274;22.506;2023-03-29T12:09:09;6.70;46.20
33655;DHT22;19997;51.274;22.506;2023-03-29T12:11:42;6.70;46.40
33655;DHT22;19997;51.274;22.506;2023-03-29T12:14:14;6.80;46.20
33655;DHT22;19997;51.274;22.506;2023-03-29T12:16:46;6.80;45.80
33655;DHT22;19997;51.274;22.506;2023-03-29T12:19:17;6.80;45.10
33655;DHT22;19997;51.274;22.506;2023-03-29T12:21:45;6.80;45.20
33655;DHT22;19997;51.274;22.506;2023-03-29T12:24:16;6.80;45.10
33655;DHT22;19997;51.274;22.506;2023-03-29T12:27:13;6.80;45.60
33655;DHT22;19997;51.274;22.506;2023-03-29T12:30:00;6.90;45.30
33655;DHT22;19997;51.274;22.506;2023-03-29T12:32:43;7.00;45.40
33655;DHT22;19997;51.274;22.506;2023-03-29T12:35:37;7.00;45.00
33655;DHT22;19997;51.274;22.506;2023-03-29T12:38:26;7.10;45.60
33655;DHT22;19997;51.274;22.506;2023-03-29T12:41:15;7.10;45.90
33655;DHT22;19997;51.274;22.506;2023-03-29T12:44:11;7.20;45.80
33655;DHT22;19997;51.274;22.506;2023-03-29T12:47:00;7.30;44.50
33655;DHT22;19997;51.274;22.506;2023-03-29T12:49:30;7.30;44.90
33655;DHT22;19997;51.274;22.506;2023-03-29T12:52:00;7.40;44.70
33655;DHT22;19997;51.274;22.506;2023-03-29T12:54:31;7.40;44.40
33655;DHT22;19997;51.274;22.506;2023-03-29T12:57:00;7.40;44.60
33655;DHT22;19997;51.274;22.506;2023-03-29T12:59:38;7.40;45.20
33655;DHT22;19997;51.274;22.506;2023-03-29T13:02:34;7.50;44.80
33655;DHT22;19997;51.274;22.506;2023-03-29T13:05:02;7.60;45.10
33655;DHT22;19997;51.274;22.506;2023-03-29T13:07:43;7.60;44.10
33655;DHT22;19997;51.274;22.506;2023-03-29T13:10:36;7.50;44.30
33655;DHT22;19997;51.274;22.506;2023-03-29T13:13:14;7.50;43.50
33655;DHT22;19997;51.274;22.506;2023-03-29T13:15:44;7.50;44.00
33655;DHT22;19997;51.274;22.506;2023-03-29T13:18:35;7.50;43.80
33655;DHT22;19997;51.274;22.506;2023-03-29T13:21:12;7.50;43.50
33655;DHT22;19997;51.274;22.506;2023-03-29T13:23:47;7.50;43.80
33655;DHT22;19997;51.274;22.506;2023-03-29T13:26:30;7.50;44.10
33655;DHT22;19997;51.274;22.506;2023-03-29T13:32:29;7.50;42.70
33655;DHT22;19997;51.274;22.506;2023-03-29T13:35:06;7.60;43.00
33655;DHT22;19997;51.274;22.506;2023-03-29T13:37:51;7.60;42.50
33655;DHT22;19997;51.274;22.506;2023-03-29T13:43:09;7.60;42.80
33655;DHT22;19997;51.274;22.506;2023-03-29T13:45:37;7.60;43.00
33655;DHT22;19997;51.274;22.506;2023-03-29T13:48:20;7.60;42.60
33655;DHT22;19997;51.274;22.506;2023-03-29T13:50:53;7.60;42.50
33655;DHT22;19997;51.274;22.506;2023-03-29T13:53:26;7.60;42.60
33655;DHT22;19997;51.274;22.506;2023-03-29T13:55:57;7.60;43.30
33655;DHT22;19997;51.274;22.506;2023-03-29T13:58:33;7.60;42.80
33655;DHT22;19997;51.274;22.506;2023-03-29T14:01:10;7.60;42.80
33655;DHT22;19997;51.274;22.506;2023-03-29T14:03:42;7.60;42.20
33655;DHT22;19997;51.274;22.506;2023-03-29T14:06:13;7.60;42.60
33655;DHT22;19997;51.274;22.506;2023-03-29T14:08:43;7.60;43.20
33655;DHT22;19997;51.274;22.506;2023-03-29T14:11:19;7.70;42.40
33655;DHT22;19997;51.274;22.506;2023-03-29T14:13:50;7.70;41.70
33655;DHT22;19997;51.274;22.506;2023-03-29T14:16:18;7.70;42.10
33655;DHT22;19997;51.274;22.506;2023-03-29T14:18:47;7.70;41.90
33655;DHT22;19997;51.274;22.506;2023-03-29T14:21:17;7.70;41.70
33655;DHT22;19997;51.274;22.506;2023-03-29T14:23:52;7.80;42.20
33655;DHT22;19997;51.274;22.506;2023-03-29T14:26:21;7.90;42.00
33655;DHT22;19997;51.274;22.506;2023-03-29T14:28:50;7.90;42.10
33655;DHT22;19997;51.274;22.506;2023-03-29T14:31:19;7.90;42.20
33655;DHT22;19997;51.274;22.506;2023-03-29T14:33:53;8.00;42.20
33655;DHT22;19997;51.274;22.506;2023-03-29T14:36:21;8.10;41.70
33655;DHT22;19997;51.274;22.506;2023-03-29T14:38:50;8.10;41.50
33655;DHT22;19997;51.274;22.506;2023-03-29T15:26:14;8.40;40.70
33655;DHT22;19997;51.274;22.506;2023-03-29T15:28:47;10.50;38.90
33655;DHT22;19997;51.274;22.506;2023-03-29T15:31:17;10.80;38.60
33655;DHT22;19997;51.274;22.506;2023-03-29T15:33:45;11.20;38.00
33655;DHT22;19997;51.274;22.506;2023-03-29T15:36:13;11.40;37.80
33655;DHT22;19997;51.274;22.506;2023-03-29T15:38:41;11.70;37.60
33655;DHT22;19997;51.274;22.506;2023-03-29T15:41:09;11.90;37.30
33655;DHT22;19997;51.274;22.506;2023-03-29T15:43:38;12.00;37.10
33655;DHT22;19997;51.274;22.506;2023-03-29T15:46:06;12.20;37.10
33655;DHT22;19997;51.274;22.506;2023-03-29T16:01:30;11.50;36.80
33655;DHT22;19997;51.274;22.506;2023-03-29T16:04:03;11.60;38.50
33655;DHT22;19997;51.274;22.506;2023-03-29T16:06:31;12.10;38.90
33655;DHT22;19997;51.274;22.506;2023-03-29T16:08:59;12.50;38.30
33655;DHT22;19997;51.274;22.506;2023-03-29T16:11:26;12.80;37.40
33655;DHT22;19997;51.274;22.506;2023-03-29T16:13:54;13.10;37.30
33655;DHT22;19997;51.274;22.506;2023-03-29T16:16:21;13.70;38.00
33655;DHT22;19997;51.274;22.506;2023-03-29T16:18:49;14.10;37.00
33655;DHT22;19997;51.274;22.506;2023-03-29T16:21:18;14.20;36.60
33655;DHT22;19997;51.274;22.506;2023-03-29T16:23:45;14.10;36.40
33655;DHT22;19997;51.274;22.506;2023-03-29T16:26:15;13.70;36.10
33655;DHT22;19997;51.274;22.506;2023-03-29T16:28:43;13.20;36.00
33655;DHT22;19997;51.274;22.506;2023-03-29T16:31:11;12.60;36.40
33655;DHT22;19997;51.274;22.506;2023-03-29T16:33:38;12.00;37.00
33655;DHT22;19997;51.274;22.506;2023-03-29T16:36:08;11.40;37.70
33655;DHT22;19997;51.274;22.506;2023-03-29T16:38:36;10.80;38.60
33655;DHT22;19997;51.274;22.506;2023-03-29T16:41:04;10.30;39.30
33655;DHT22;19997;51.274;22.506;2023-03-29T16:43:31;9.90;40.00
33655;DHT22;19997;51.274;22.506;2023-03-29T16:51:10;8.60;40.70
33655;DHT22;19997;51.274;22.506;2023-03-29T16:53:37;8.10;42.70
33655;DHT22;19997;51.274;22.506;2023-03-29T16:56:06;7.80;43.90
33655;DHT22;19997;51.274;22.506;2023-03-29T16:58:33;7.60;44.50
33655;DHT22;19997;51.274;22.506;2023-03-29T17:01:11;7.40;45.00
33655;DHT22;19997;51.274;22.506;2023-03-29T17:03:39;7.30;45.10
33655;DHT22;19997;51.274;22.506;2023-03-29T17:06:07;7.20;45.20
33655;DHT22;19997;51.274;22.506;2023-03-29T17:08:36;7.20;45.60
33655;DHT22;19997;51.274;22.506;2023-03-29T17:11:04;7.10;45.80
33655;DHT22;19997;51.274;22.506;2023-03-29T17:13:32;7.10;46.30
33655;DHT22;19997;51.274;22.506;2023-03-29T17:15:59;7.00;46.60
33655;DHT22;19997;51.274;22.506;2023-03-29T17:18:27;6.90;47.10
33655;DHT22;19997;51.274;22.506;2023-03-29T17:20:58;6.80;47.20